sensor_id;sensor_type;location;lat;lon;timestamp;pressure;altitude;pressure_sealevel;temperature;humidity
14393;BME280;7281;42.678;23.372;2022-12-29T00:00:17;96057.22;;;7.68;57.68
14393;BME280;7281;42.678;23.372;2022-12-29T00:02:44;96061.56;;;7.74;57.65
14393;BME280;7281;42.678;23.372;2022-12-29T00:05:11;96052.38;;;7.65;57.26
14393;BME280;7281;42.678;23.372;2022-12-29T00:07:38;96050.47;;;7.47;57.84
14393;BME280;7281;42.678;23.372;2022-12-29T00:10:05;96054.53;;;7.37;58.82
14393;BME280;7281;42.678;23.372;2022-12-29T00:12:32;96065.34;;;7.40;58.80
14393;BME280;7281;42.678;23.372;2022-12-29T00:15:19;96064.13;;;7.49;58.53
14393;BME280;7281;42.678;23.372;2022-12-29T00:18:05;96073.34;;;7.45;58.39
14393;BME280;7281;42.678;23.372;2022-12-29T00:20:36;96070.47;;;7.60;58.18
14393;BME280;7281;42.678;23.372;2022-12-29T00:23:22;96071.72;;;7.51;58.50
14393;BME280;7281;42.678;23.372;2022-12-29T00:26:12;96054.66;;;7.55;58.32
14393;BME280;7281;42.678;23.372;2022-12-29T00:28:58;96064.25;;;7.16;59.18
14393;BME280;7281;42.678;23.372;2022-12-29T00:31:44;96070.84;;;7.19;59.60
14393;BME280;7281;42.678;23.372;2022-12-29T00:34:29;96070.16;;;7.43;58.46
14393;BME280;7281;42.678;23.372;2022-12-29T00:37:14;96071.50;;;7.59;58.54
14393;BME280;7281;42.678;23.372;2022-12-29T00:39:42;96070.97;;;7.44;59.31
14393;BME280;7281;42.678;23.372;2022-12-29T00:42:27;96069.75;;;7.40;58.43
14393;BME280;7281;42.678;23.372;2022-12-29T00:45:13;96069.28;;;7.56;58.25
14393;BME280;7281;42.678;23.372;2022-12-29T00:47:40;96077.94;;;6.92;60.30
14393;BME280;7281;42.678;23.372;2022-12-29T00:50:07;96081.25;;;7.26;58.85
14393;BME280;7281;42.678;23.372;2022-12-29T00:52:34;96080.38;;;7.45;59.04
14393;BME280;7281;42.678;23.372;2022-12-29T00:55:01;96073.59;;;7.37;58.78
14393;BME280;7281;42.678;23.372;2022-12-29T00:57:27;96083.69;;;7.65;57.82
14393;BME280;7281;42.678;23.372;2022-12-29T00:59:54;96081.69;;;7.67;57.58
14393;BME280;7281;42.678;23.372;2022-12-29T01:02:21;96074.75;;;7.48;58.34
14393;BME280;7281;42.678;23.372;2022-12-29T01:04:48;96074.53;;;7.49;58.45
14393;BME280;7281;42.678;23.372;2022-12-29T01:07:15;96082.22;;;7.38;59.02
14393;BME280;7281;42.678;23.372;2022-12-29T01:09:44;96081.44;;;7.31;59.39
14393;BME280;7281;42.678;23.372;2022-12-29T01:12:29;96074.25;;;7.26;59.66
14393;BME280;7281;42.678;23.372;2022-12-29T01:15:10;96074.63;;;7.30;59.21
14393;BME280;7281;42.678;23.372;2022-12-29T01:17:38;96066.09;;;7.54;58.32
14393;BME280;7281;42.678;23.372;2022-12-29T01:20:05;96064.44;;;7.66;58.40
14393;BME280;7281;42.678;23.372;2022-12-29T01:22:32;96063.47;;;7.60;57.56
14393;BME280;7281;42.678;23.372;2022-12-29T01:24:59;96066.00;;;7.73;57.51
14393;BME280;7281;42.678;23.372;2022-12-29T01:27:26;96068.78;;;7.78;57.81
14393;BME280;7281;42.678;23.372;2022-12-29T01:29:53;96055.19;;;7.70;57.26
14393;BME280;7281;42.678;23.372;2022-12-29T01:32:20;96059.56;;;7.76;57.21
14393;BME280;7281;42.678;23.372;2022-12-29T01:34:47;96055.94;;;7.77;57.51
14393;BME280;7281;42.678;23.372;2022-12-29T01:37:14;96056.81;;;7.64;57.53
14393;BME280;7281;42.678;23.372;2022-12-29T01:39:41;96058.84;;;7.62;57.88
14393;BME280;7281;42.678;23.372;2022-12-29T01:42:18;96056.06;;;7.51;57.51
14393;BME280;7281;42.678;23.372;2022-12-29T01:44:56;96050.06;;;7.50;57.87
14393;BME280;7281;42.678;23.372;2022-12-29T01:47:49;96058.91;;;7.43;57.76
14393;BME280;7281;42.678;23.372;2022-12-29T01:52:56;96036.84;;;7.52;57.96
14393;BME280;7281;42.678;23.372;2022-12-29T01:55:29;96032.44;;;7.46;58.03
14393;BME280;7281;42.678;23.372;2022-12-29T01:58:01;96033.97;;;7.60;57.50
14393;BME280;7281;42.678;23.372;2022-12-29T02:00:29;96035.44;;;7.43;58.67
14393;BME280;7281;42.678;23.372;2022-12-29T02:02:56;96033.25;;;7.46;57.88
14393;BME280;7281;42.678;23.372;2022-12-29T02:05:28;96030.81;;;7.45;58.45
14393;BME280;7281;42.678;23.372;2022-12-29T02:07:57;96032.00;;;7.49;58.37
14393;BME280;7281;42.678;23.372;2022-12-29T02:10:26;96023.19;;;7.50;58.11
14393;BME280;7281;42.678;23.372;2022-12-29T02:12:55;96026.78;;;7.49;57.59
14393;BME280;7281;42.678;23.372;2022-12-29T02:15:33;96026.41;;;7.52;58.06
14393;BME280;7281;42.678;23.372;2022-12-29T02:18:30;96037.16;;;7.62;57.95
14393;BME280;7281;42.678;23.372;2022-12-29T02:26:46;96028.19;;;7.51;57.45
14393;BME280;7281;42.678;23.372;2022-12-29T02:37:48;96023.53;;;7.60;57.40
14393;BME280;7281;42.678;23.372;2022-12-29T02:43:13;96032.78;;;7.56;57.64
14393;BME280;7281;42.678;23.372;2022-12-29T02:46:14;96028.59;;;7.55;57.62
14393;BME280;7281;42.678;23.372;2022-12-29T02:48:58;96024.72;;;7.64;56.65
14393;BME280;7281;42.678;23.372;2022-12-29T02:51:46;96019.50;;;7.64;56.90
14393;BME280;7281;42.678;23.372;2022-12-29T02:54:18;96023.00;;;7.82;56.71
14393;BME280;7281;42.678;23.372;2022-12-29T02:57:29;96012.94;;;7.86;56.01
14393;BME280;7281;42.678;23.372;2022-12-29T03:02:50;96018.84;;;7.75;56.48
14393;BME280;7281;42.678;23.372;2022-12-29T03:05:43;96022.72;;;7.90;56.10
14393;BME280;7281;42.678;23.372;2022-12-29T03:11:13;96011.44;;;7.72;56.66
14393;BME280;7281;42.678;23.372;2022-12-29T03:14:16;96014.03;;;7.72;56.83
14393;BME280;7281;42.678;23.372;2022-12-29T03:17:23;96014.28;;;7.64;56.72
14393;BME280;7281;42.678;23.372;2022-12-29T03:19:57;96014.59;;;7.74;56.95
14393;BME280;7281;42.678;23.372;2022-12-29T03:22:29;96010.16;;;7.81;57.00
14393;BME280;7281;42.678;23.372;2022-12-29T03:25:20;96015.78;;;7.78;56.29
14393;BME280;7281;42.678;23.372;2022-12-29T03:28:03;95999.38;;;8.02;55.93
14393;BME280;7281;42.678;23.372;2022-12-29T03:30:38;96011.44;;;7.72;56.57
14393;BME280;7281;42.678;23.372;2022-12-29T03:33:13;96003.00;;;7.39;56.96
14393;BME280;7281;42.678;23.372;2022-12-29T03:35:42;96011.81;;;7.38;56.95
14393;BME280;7281;42.678;23.372;2022-12-29T03:38:22;96011.56;;;7.46;56.80
14393;BME280;7281;42.678;23.372;2022-12-29T03:40:53;96010.22;;;7.37;56.88
14393;BME280;7281;42.678;23.372;2022-12-29T03:43:24;96009.69;;;7.22;56.76
14393;BME280;7281;42.678;23.372;2022-12-29T03:45:52;96012.50;;;7.13;56.63
14393;BME280;7281;42.678;23.372;2022-12-29T03:48:18;96013.56;;;7.06;57.06
14393;BME280;7281;42.678;23.372;2022-12-29T03:50:47;96026.00;;;7.04;56.92
14393;BME280;7281;42.678;23.372;2022-12-29T03:53:15;96027.78;;;7.03;56.53
14393;BME280;7281;42.678;23.372;2022-12-29T03:55:42;96029.59;;;7.09;56.55
14393;BME280;7281;42.678;23.372;2022-12-29T03:58:10;96028.38;;;7.05;56.85
14393;BME280;7281;42.678;23.372;2022-12-29T04:00:49;96012.00;;;6.85;57.52
14393;BME280;7281;42.678;23.372;2022-12-29T04:03:17;96031.81;;;6.99;56.63
14393;BME280;7281;42.678;23.372;2022-12-29T04:05:44;96033.81;;;7.04;56.56
14393;BME280;7281;42.678;23.372;2022-12-29T04:08:11;96033.47;;;6.87;57.23
14393;BME280;7281;42.678;23.372;2022-12-29T04:10:38;96033.66;;;6.79;57.68
14393;BME280;7281;42.678;23.372;2022-12-29T04:13:06;96033.06;;;6.84;57.60
14393;BME280;7281;42.678;23.372;2022-12-29T04:15:33;96034.50;;;6.67;58.56
14393;BME280;7281;42.678;23.372;2022-12-29T04:18:01;96028.31;;;6.02;60.52
14393;BME280;7281;42.678;23.372;2022-12-29T04:20:28;96041.34;;;6.42;58.90
14393;BME280;7281;42.678;23.372;2022-12-29T04:23:13;96033.50;;;6.48;59.07
14393;BME280;7281;42.678;23.372;2022-12-29T04:25:40;96035.94;;;6.30;59.27
14393;BME280;7281;42.678;23.372;2022-12-29T04:28:08;96029.94;;;6.23;58.88
14393;BME280;7281;42.678;23.372;2022-12-29T04:31:08;96029.72;;;6.11;59.97
14393;BME280;7281;42.678;23.372;2022-12-29T04:33:38;96032.50;;;6.43;59.44
14393;BME280;7281;42.678;23.372;2022-12-29T04:36:06;96045.13;;;6.52;58.81
14393;BME280;7281;42.678;23.372;2022-12-29T04:38:34;96043.31;;;6.59;58.89
14393;BME280;7281;42.678;23.372;2022-12-29T04:41:03;96050.31;;;6.65;58.00
14393;BME280;7281;42.678;23.372;2022-12-29T04:43:32;96043.88;;;6.81;57.62
14393;BME280;7281;42.678;23.372;2022-12-29T04:46:08;96057.53;;;6.76;57.80
14393;BME280;7281;42.678;23.372;2022-12-29T04:48:44;96063.53;;;6.57;58.83
14393;BME280;7281;42.678;23.372;2022-12-29T04:51:37;96063.53;;;6.70;58.10
14393;BME280;7281;42.678;23.372;2022-12-29T04:54:06;96063.53;;;6.77;57.95
14393;BME280;7281;42.678;23.372;2022-12-29T04:56:34;96067.94;;;6.70;58.31
14393;BME280;7281;42.678;23.372;2022-12-29T04:59:01;96059.94;;;6.65;58.42
14393;BME280;7281;42.678;23.372;2022-12-29T05:01:27;96061.94;;;6.69;58.55
14393;BME280;7281;42.678;23.372;2022-12-29T05:03:54;96068.75;;;6.70;58.37
14393;BME280;7281;42.678;23.372;2022-12-29T05:06:22;96058.34;;;6.51;58.11
14393;BME280;7281;42.678;23.372;2022-12-29T05:08:49;96065.53;;;6.68;58.40
14393;BME280;7281;42.678;23.372;2022-12-29T05:11:17;96056.13;;;6.80;58.03
14393;BME280;7281;42.678;23.372;2022-12-29T05:13:46;96065.53;;;6.81;57.92
14393;BME280;7281;42.678;23.372;2022-12-29T05:16:15;96061.13;;;6.75;58.08
14393;BME280;7281;42.678;23.372;2022-12-29T05:18:43;96062.13;;;6.74;58.10
14393;BME280;7281;42.678;23.372;2022-12-29T05:21:10;96057.88;;;6.86;57.87
14393;BME280;7281;42.678;23.372;2022-12-29T05:23:39;96053.06;;;6.96;57.75
14393;BME280;7281;42.678;23.372;2022-12-29T05:26:05;96051.31;;;6.84;57.69
14393;BME280;7281;42.678;23.372;2022-12-29T05:28:47;96057.72;;;6.81;57.82
14393;BME280;7281;42.678;23.372;2022-12-29T05:31:17;96057.09;;;6.92;57.28
14393;BME280;7281;42.678;23.372;2022-12-29T05:33:44;96063.94;;;5.89;59.50
14393;BME280;7281;42.678;23.372;2022-12-29T05:36:12;96061.94;;;6.04;60.02
14393;BME280;7281;42.678;23.372;2022-12-29T05:38:44;96066.59;;;6.35;59.08
14393;BME280;7281;42.678;23.372;2022-12-29T05:41:12;96062.38;;;6.40;58.91
14393;BME280;7281;42.678;23.372;2022-12-29T05:43:54;96063.53;;;6.57;58.61
14393;BME280;7281;42.678;23.372;2022-12-29T05:46:43;96071.94;;;6.72;58.72
14393;BME280;7281;42.678;23.372;2022-12-29T05:49:16;96066.75;;;6.59;58.64
14393;BME280;7281;42.678;23.372;2022-12-29T05:55:08;96078.78;;;6.47;59.05
14393;BME280;7281;42.678;23.372;2022-12-29T05:57:36;96080.38;;;6.48;59.35
14393;BME280;7281;42.678;23.372;2022-12-29T06:00:10;96080.38;;;6.68;59.27
14393;BME280;7281;42.678;23.372;2022-12-29T06:02:45;96082.56;;;6.77;58.67
14393;BME280;7281;42.678;23.372;2022-12-29T06:05:14;96081.94;;;6.88;58.09
14393;BME280;7281;42.678;23.372;2022-12-29T06:07:41;96075.16;;;6.74;58.40
14393;BME280;7281;42.678;23.372;2022-12-29T06:10:08;96083.13;;;6.92;58.25
14393;BME280;7281;42.678;23.372;2022-12-29T06:12:49;96087.94;;;6.95;58.20
14393;BME280;7281;42.678;23.372;2022-12-29T06:15:16;96080.75;;;6.78;58.27
14393;BME280;7281;42.678;23.372;2022-12-29T06:17:44;96088.38;;;6.79;58.34
14393;BME280;7281;42.678;23.372;2022-12-29T06:20:11;96083.34;;;6.84;58.56
14393;BME280;7281;42.678;23.372;2022-12-29T06:22:38;96076.75;;;6.82;58.64
14393;BME280;7281;42.678;23.372;2022-12-29T06:25:06;96080.56;;;6.79;58.66
14393;BME280;7281;42.678;23.372;2022-12-29T06:27:34;96086.78;;;6.78;58.81
14393;BME280;7281;42.678;23.372;2022-12-29T06:30:01;96087.19;;;6.69;58.88
14393;BME280;7281;42.678;23.372;2022-12-29T06:32:29;96085.94;;;6.84;58.55
14393;BME280;7281;42.678;23.372;2022-12-29T06:35:02;96087.97;;;6.89;58.67
14393;BME280;7281;42.678;23.372;2022-12-29T06:37:29;96080.94;;;7.02;59.07
14393;BME280;7281;42.678;23.372;2022-12-29T06:39:56;96085.09;;;7.10;58.46
14393;BME280;7281;42.678;23.372;2022-12-29T06:42:29;96083.81;;;7.39;58.03
14393;BME280;7281;42.678;23.372;2022-12-29T06:45:29;96099.09;;;7.29;58.12
14393;BME280;7281;42.678;23.372;2022-12-29T06:47:56;96085.91;;;7.10;58.46
14393;BME280;7281;42.678;23.372;2022-12-29T06:50:22;96099.91;;;7.22;58.26
14393;BME280;7281;42.678;23.372;2022-12-29T06:52:49;96098.69;;;7.32;58.73
14393;BME280;7281;42.678;23.372;2022-12-29T06:55:16;96101.00;;;7.53;58.49
14393;BME280;7281;42.678;23.372;2022-12-29T06:57:43;96110.56;;;7.72;58.25
14393;BME280;7281;42.678;23.372;2022-12-29T07:00:10;96099.81;;;7.93;57.75
14393;BME280;7281;42.678;23.372;2022-12-29T07:02:37;96096.38;;;7.99;57.78
14393;BME280;7281;42.678;23.372;2022-12-29T07:05:04;96095.28;;;8.13;57.22
14393;BME280;7281;42.678;23.372;2022-12-29T07:07:31;96106.66;;;8.25;56.96
14393;BME280;7281;42.678;23.372;2022-12-29T07:09:58;96102.16;;;8.39;57.09
14393;BME280;7281;42.678;23.372;2022-12-29T07:12:25;96093.19;;;8.59;56.14
14393;BME280;7281;42.678;23.372;2022-12-29T07:14:51;96089.97;;;8.57;56.31
14393;BME280;7281;42.678;23.372;2022-12-29T07:17:18;96095.47;;;8.74;55.75
14393;BME280;7281;42.678;23.372;2022-12-29T07:19:45;96090.59;;;8.77;55.68
14393;BME280;7281;42.678;23.372;2022-12-29T07:22:12;96094.53;;;8.86;55.88
14393;BME280;7281;42.678;23.372;2022-12-29T07:24:39;96076.03;;;8.63;55.76
14393;BME280;7281;42.678;23.372;2022-12-29T07:27:06;96087.69;;;8.85;55.67
14393;BME280;7281;42.678;23.372;2022-12-29T07:29:33;96089.13;;;9.06;54.91
14393;BME280;7281;42.678;23.372;2022-12-29T07:32:00;96088.75;;;9.20;54.74
14393;BME280;7281;42.678;23.372;2022-12-29T07:34:27;96091.47;;;9.14;54.84
14393;BME280;7281;42.678;23.372;2022-12-29T07:36:54;96086.16;;;9.20;54.66
14393;BME280;7281;42.678;23.372;2022-12-29T07:39:20;96094.72;;;9.46;54.16
14393;BME280;7281;42.678;23.372;2022-12-29T07:41:47;96090.66;;;9.50;54.00
14393;BME280;7281;42.678;23.372;2022-12-29T07:44:19;96096.38;;;9.40;54.42
14393;BME280;7281;42.678;23.372;2022-12-29T07:46:52;96086.50;;;9.60;54.04
14393;BME280;7281;42.678;23.372;2022-12-29T07:49:23;96093.13;;;9.45;54.08
14393;BME280;7281;42.678;23.372;2022-12-29T07:51:50;96095.06;;;9.49;54.15
14393;BME280;7281;42.678;23.372;2022-12-29T07:54:17;96092.22;;;9.51;54.24
14393;BME280;7281;42.678;23.372;2022-12-29T07:56:49;96098.03;;;9.89;53.98
14393;BME280;7281;42.678;23.372;2022-12-29T07:59:16;96095.19;;;10.02;53.35
14393;BME280;7281;42.678;23.372;2022-12-29T08:01:43;96090.97;;;10.19;53.59
14393;BME280;7281;42.678;23.372;2022-12-29T08:04:10;96097.41;;;10.46;52.53
14393;BME280;7281;42.678;23.372;2022-12-29T08:06:38;96094.47;;;10.54;52.00
14393;BME280;7281;42.678;23.372;2022-12-29T08:09:04;96102.47;;;10.59;51.49
14393;BME280;7281;42.678;23.372;2022-12-29T08:11:42;96097.28;;;10.41;51.29
14393;BME280;7281;42.678;23.372;2022-12-29T08:14:10;96102.00;;;10.62;51.24
14393;BME280;7281;42.678;23.372;2022-12-29T08:16:37;96090.06;;;10.78;50.76
14393;BME280;7281;42.678;23.372;2022-12-29T08:19:04;96086.41;;;10.90;50.67
14393;BME280;7281;42.678;23.372;2022-12-29T08:21:31;96094.72;;;11.10;50.36
14393;BME280;7281;42.678;23.372;2022-12-29T08:23:58;96096.53;;;10.98;50.05
14393;BME280;7281;42.678;23.372;2022-12-29T08:26:25;96093.38;;;10.96;49.65
14393;BME280;7281;42.678;23.372;2022-12-29T08:28:53;96090.06;;;10.78;49.42
14393;BME280;7281;42.678;23.372;2022-12-29T08:31:22;96082.63;;;11.09;49.38
14393;BME280;7281;42.678;23.372;2022-12-29T08:33:49;96073.63;;;11.17;49.17
14393;BME280;7281;42.678;23.372;2022-12-29T08:36:16;96086.16;;;11.15;49.67
14393;BME280;7281;42.678;23.372;2022-12-29T08:38:43;96084.19;;;11.34;48.01
14393;BME280;7281;42.678;23.372;2022-12-29T08:41:10;96084.44;;;11.44;48.66
14393;BME280;7281;42.678;23.372;2022-12-29T08:43:37;96085.53;;;11.59;48.08
14393;BME280;7281;42.678;23.372;2022-12-29T08:46:03;96079.25;;;12.00;47.42
14393;BME280;7281;42.678;23.372;2022-12-29T08:48:30;96078.19;;;12.29;46.52
14393;BME280;7281;42.678;23.372;2022-12-29T08:50:57;96072.97;;;12.62;46.23
14393;BME280;7281;42.678;23.372;2022-12-29T08:53:24;96070.22;;;12.90;45.52
14393;BME280;7281;42.678;23.372;2022-12-29T08:55:59;96078.47;;;13.32;44.68
14393;BME280;7281;42.678;23.372;2022-12-29T08:58:39;96071.97;;;13.01;44.83
14393;BME280;7281;42.678;23.372;2022-12-29T09:01:09;96068.91;;;13.43;44.08
14393;BME280;7281;42.678;23.372;2022-12-29T09:03:36;96066.97;;;13.38;45.21
14393;BME280;7281;42.678;23.372;2022-12-29T09:06:23;96063.13;;;13.67;45.01
14393;BME280;7281;42.678;23.372;2022-12-29T09:08:50;96058.38;;;13.64;44.72
14393;BME280;7281;42.678;23.372;2022-12-29T09:11:22;96064.50;;;13.70;43.70
14393;BME280;7281;42.678;23.372;2022-12-29T09:13:50;96048.56;;;13.60;43.90
14393;BME280;7281;42.678;23.372;2022-12-29T09:16:17;96048.81;;;14.06;42.94
14393;BME280;7281;42.678;23.372;2022-12-29T09:18:44;96046.50;;;14.15;43.51
14393;BME280;7281;42.678;23.372;2022-12-29T09:21:13;96053.34;;;13.63;43.30
14393;BME280;7281;42.678;23.372;2022-12-29T09:23:42;96047.03;;;13.90;43.29
14393;BME280;7281;42.678;23.372;2022-12-29T09:26:09;96045.59;;;13.78;42.47
14393;BME280;7281;42.678;23.372;2022-12-29T09:28:36;96040.38;;;14.31;42.93
14393;BME280;7281;42.678;23.372;2022-12-29T09:31:03;96045.22;;;13.91;42.28
14393;BME280;7281;42.678;23.372;2022-12-29T09:33:31;96040.28;;;13.51;43.14
14393;BME280;7281;42.678;23.372;2022-12-29T09:36:00;96034.19;;;13.94;43.02
14393;BME280;7281;42.678;23.372;2022-12-29T09:38:27;96047.28;;;13.89;42.31
14393;BME280;7281;42.678;23.372;2022-12-29T09:41:06;96040.28;;;14.26;43.15
14393;BME280;7281;42.678;23.372;2022-12-29T09:43:47;96032.38;;;14.26;42.43
14393;BME280;7281;42.678;23.372;2022-12-29T09:46:28;96030.31;;;14.28;42.33
14393;BME280;7281;42.678;23.372;2022-12-29T09:51:36;96032.38;;;14.26;41.83
14393;BME280;7281;42.678;23.372;2022-12-29T09:54:21;96020.56;;;14.02;43.03
14393;BME280;7281;42.678;23.372;2022-12-29T09:56:50;96015.41;;;14.12;42.04
14393;BME280;7281;42.678;23.372;2022-12-29T09:59:21;96013.56;;;14.44;43.35
14393;BME280;7281;42.678;23.372;2022-12-29T10:01:59;96010.28;;;14.64;42.40
14393;BME280;7281;42.678;23.372;2022-12-29T10:04:32;96009.75;;;14.62;42.04
14393;BME280;7281;42.678;23.372;2022-12-29T10:10:03;96001.16;;;14.13;42.60
14393;BME280;7281;42.678;23.372;2022-12-29T10:23:28;95992.03;;;14.25;42.87
14393;BME280;7281;42.678;23.372;2022-12-29T10:25:57;95992.28;;;14.24;43.01
14393;BME280;7281;42.678;23.372;2022-12-29T10:28:59;95987.75;;;14.46;41.51
14393;BME280;7281;42.678;23.372;2022-12-29T10:31:26;95987.66;;;14.36;44.15
14393;BME280;7281;42.678;23.372;2022-12-29T10:33:58;95982.91;;;13.80;43.08
14393;BME280;7281;42.678;23.372;2022-12-29T10:36:37;95986.03;;;14.03;43.06
14393;BME280;7281;42.678;23.372;2022-12-29T10:41:39;95971.00;;;13.99;43.64
14393;BME280;7281;42.678;23.372;2022-12-29T10:44:12;95969.00;;;14.16;43.66
14393;BME280;7281;42.678;23.372;2022-12-29T10:46:41;95966.63;;;14.41;42.46
14393;BME280;7281;42.678;23.372;2022-12-29T10:49:15;95965.09;;;14.50;42.23
14393;BME280;7281;42.678;23.372;2022-12-29T10:51:48;95967.22;;;13.90;44.57
14393;BME280;7281;42.678;23.372;2022-12-29T10:54:26;95958.81;;;13.93;43.45
14393;BME280;7281;42.678;23.372;2022-12-29T10:57:04;95964.66;;;14.00;43.48
14393;BME280;7281;42.678;23.372;2022-12-29T10:59:50;95956.13;;;13.88;45.34
14393;BME280;7281;42.678;23.372;2022-12-29T11:05:35;95932.59;;;13.50;43.66
14393;BME280;7281;42.678;23.372;2022-12-29T11:08:10;95935.84;;;13.35;44.19
14393;BME280;7281;42.678;23.372;2022-12-29T11:10:41;95948.41;;;13.06;44.92
14393;BME280;7281;42.678;23.372;2022-12-29T11:13:15;95947.56;;;13.49;44.37
14393;BME280;7281;42.678;23.372;2022-12-29T11:15:46;95933.34;;;13.72;44.34
14393;BME280;7281;42.678;23.372;2022-12-29T11:18:32;95926.16;;;13.94;44.40
14393;BME280;7281;42.678;23.372;2022-12-29T11:21:02;95929.84;;;13.98;44.79
14393;BME280;7281;42.678;23.372;2022-12-29T11:23:32;95918.38;;;13.77;43.39
14393;BME280;7281;42.678;23.372;2022-12-29T11:28:33;95927.97;;;13.13;43.97
14393;BME280;7281;42.678;23.372;2022-12-29T11:31:01;95932.22;;;12.76;45.28
14393;BME280;7281;42.678;23.372;2022-12-29T11:33:29;95927.91;;;12.70;45.70
14393;BME280;7281;42.678;23.372;2022-12-29T11:36:06;95927.03;;;13.03;45.14
14393;BME280;7281;42.678;23.372;2022-12-29T11:38:38;95929.75;;;13.08;45.32
14393;BME280;7281;42.678;23.372;2022-12-29T11:41:11;95924.31;;;13.41;44.31
14393;BME280;7281;42.678;23.372;2022-12-29T11:43:41;95915.88;;;13.66;44.08
14393;BME280;7281;42.678;23.372;2022-12-29T11:46:16;95907.72;;;13.94;44.21
14393;BME280;7281;42.678;23.372;2022-12-29T11:48:45;95913.84;;;14.04;43.78
14393;BME280;7281;42.678;23.372;2022-12-29T11:51:26;95904.13;;;14.05;44.44
14393;BME280;7281;42.678;23.372;2022-12-29T11:53:58;95909.03;;;14.28;43.24
14393;BME280;7281;42.678;23.372;2022-12-29T11:56:39;95912.28;;;14.87;42.35
14393;BME280;7281;42.678;23.372;2022-12-29T12:02:54;95901.41;;;16.76;38.98
14393;BME280;7281;42.678;23.372;2022-12-29T12:05:21;95905.38;;;15.43;39.33
14393;BME280;7281;42.678;23.372;2022-12-29T12:07:54;95892.94;;;16.84;38.32
14393;BME280;7281;42.678;23.372;2022-12-29T12:10:28;95891.63;;;16.76;37.84
14393;BME280;7281;42.678;23.372;2022-12-29T12:13:05;95877.56;;;17.83;37.24
14393;BME280;7281;42.678;23.372;2022-12-29T12:15:41;95878.06;;;17.90;35.91
14393;BME280;7281;42.678;23.372;2022-12-29T12:18:36;95881.97;;;19.07;35.23
14393;BME280;7281;42.678;23.372;2022-12-29T12:21:14;95877.78;;;19.81;33.99
14393;BME280;7281;42.678;23.372;2022-12-29T12:23:57;95879.75;;;19.57;33.42
14393;BME280;7281;42.678;23.372;2022-12-29T12:29:41;95869.09;;;18.72;34.78
14393;BME280;7281;42.678;23.372;2022-12-29T12:34:43;95856.22;;;18.84;35.05
14393;BME280;7281;42.678;23.372;2022-12-29T12:40:34;95861.28;;;19.47;34.10
14393;BME280;7281;42.678;23.372;2022-12-29T12:46:28;95857.22;;;21.46;30.60
14393;BME280;7281;42.678;23.372;2022-12-29T12:52:08;95853.50;;;21.20;30.64
14393;BME280;7281;42.678;23.372;2022-12-29T12:55:16;95853.25;;;21.57;31.00
14393;BME280;7281;42.678;23.372;2022-12-29T13:00:18;95859.69;;;20.15;31.69
14393;BME280;7281;42.678;23.372;2022-12-29T13:03:03;95864.81;;;19.61;32.48
14393;BME280;7281;42.678;23.372;2022-12-29T13:06:04;95854.88;;;19.48;33.48
14393;BME280;7281;42.678;23.372;2022-12-29T13:22:14;95861.50;;;19.69;33.28
14393;BME280;7281;42.678;23.372;2022-12-29T13:25:51;95866.88;;;19.03;33.87
14393;BME280;7281;42.678;23.372;2022-12-29T13:27:56;95870.25;;;17.21;37.94
14393;BME280;7281;42.678;23.372;2022-12-29T13:30:53;95873.56;;;16.93;39.17
14393;BME280;7281;42.678;23.372;2022-12-29T13:33:34;95882.69;;;16.37;40.00
14393;BME280;7281;42.678;23.372;2022-12-29T13:36:13;95863.63;;;16.45;39.03
14393;BME280;7281;42.678;23.372;2022-12-29T13:38:48;95876.38;;;15.83;39.80
14393;BME280;7281;42.678;23.372;2022-12-29T13:41:30;95873.88;;;15.31;40.58
14393;BME280;7281;42.678;23.372;2022-12-29T13:44:02;95876.19;;;14.97;41.23
14393;BME280;7281;42.678;23.372;2022-12-29T13:46:40;95876.25;;;14.56;42.18
14393;BME280;7281;42.678;23.372;2022-12-29T13:49:20;95872.81;;;14.55;42.17
14393;BME280;7281;42.678;23.372;2022-12-29T13:52:11;95875.72;;;14.17;43.21
14393;BME280;7281;42.678;23.372;2022-12-29T13:55:08;95880.19;;;13.80;44.34
14393;BME280;7281;42.678;23.372;2022-12-29T13:57:52;95868.47;;;13.97;43.48
14393;BME280;7281;42.678;23.372;2022-12-29T14:00:22;95883.50;;;14.02;43.70
14393;BME280;7281;42.678;23.372;2022-12-29T14:06:48;95892.31;;;13.81;44.27
14393;BME280;7281;42.678;23.372;2022-12-29T14:08:58;95883.88;;;13.79;44.44
14393;BME280;7281;42.678;23.372;2022-12-29T14:11:37;95875.94;;;13.74;44.98
14393;BME280;7281;42.678;23.372;2022-12-29T14:14:31;95888.38;;;13.52;44.86
14393;BME280;7281;42.678;23.372;2022-12-29T14:17:11;95887.75;;;13.71;44.67
14393;BME280;7281;42.678;23.372;2022-12-29T14:19:44;95890.50;;;13.55;44.93
14393;BME280;7281;42.678;23.372;2022-12-29T14:22:12;95886.56;;;13.31;45.54
14393;BME280;7281;42.678;23.372;2022-12-29T14:24:42;95899.59;;;13.15;45.65
14393;BME280;7281;42.678;23.372;2022-12-29T14:34:48;95910.84;;;12.51;48.61
14393;BME280;7281;42.678;23.372;2022-12-29T14:37:30;95924.03;;;12.18;49.77
14393;BME280;7281;42.678;23.372;2022-12-29T14:40:25;95914.06;;;12.75;49.14
14393;BME280;7281;42.678;23.372;2022-12-29T14:42:56;95912.38;;;12.90;48.28
14393;BME280;7281;42.678;23.372;2022-12-29T14:45:28;95906.13;;;13.13;47.94
14393;BME280;7281;42.678;23.372;2022-12-29T14:47:55;95912.69;;;12.94;47.33
14393;BME280;7281;42.678;23.372;2022-12-29T14:50:43;95912.34;;;12.85;47.85
14393;BME280;7281;42.678;23.372;2022-12-29T14:53:42;95907.19;;;12.74;48.44
14393;BME280;7281;42.678;23.372;2022-12-29T14:56:11;95915.97;;;12.63;48.34
14393;BME280;7281;42.678;23.372;2022-12-29T14:58:57;95915.53;;;12.49;49.24
14393;BME280;7281;42.678;23.372;2022-12-29T15:01:38;95921.88;;;12.70;49.11
14393;BME280;7281;42.678;23.372;2022-12-29T15:06:42;95913.38;;;11.75;50.01
14393;BME280;7281;42.678;23.372;2022-12-29T15:09:33;95915.75;;;12.26;49.37
14393;BME280;7281;42.678;23.372;2022-12-29T15:15:23;95916.53;;;11.77;50.18
14393;BME280;7281;42.678;23.372;2022-12-29T15:17:51;95918.53;;;12.03;49.68
14393;BME280;7281;42.678;23.372;2022-12-29T15:20:29;95915.75;;;11.76;50.32
14393;BME280;7281;42.678;23.372;2022-12-29T15:23:00;95916.16;;;11.57;51.27